Time;durP1;ratioP1;P1;durP2;ratioP2;P2;SDS_P1;SDS_P2;PMS_P1;PMS_P2;Temp;Humidity;BMP_temperature;BMP_pressure;BME280_temperature;BME280_humidity;BME280_pressure;Samples;Min_cycle;Max_cycle;Signal;HPM_P1;HPM_P2
2023/06/14 00:00:52;;;;;;;6.68;3.53;;;19.40;91.10;;;;;;7395196;19;19922;-71
2023/06/14 00:03:21;;;;;;;;;;;19.30;92.10;;;;;;7399757;19;19930;-71
2023/06/14 00:05:48;;;;;;;6.55;3.47;;;19.20;92.80;;;;;;7402586;19;19922;-71
2023/06/14 00:08:14;;;;;;;7.80;3.58;;;19.20;93.80;;;;;;7401432;19;19943;-71
2023/06/14 00:10:41;;;;;;;6.28;3.65;;;19.10;94.70;;;;;;7404425;19;19930;-71
2023/06/14 00:13:08;;;;;;;9.65;4.95;;;19.10;95.70;;;;;;7402443;19;19914;-70
2023/06/14 00:15:35;;;;;;;6.60;3.85;;;19.00;96.50;;;;;;7404033;19;20290;-71
2023/06/14 00:18:01;;;;;;;8.25;4.15;;;19.00;96.90;;;;;;7405566;19;19914;-70
2023/06/14 00:20:28;;;;;;;7.57;4.30;;;18.90;97.10;;;;;;7404736;19;19939;-70
2023/06/14 00:22:55;;;;;;;8.48;4.28;;;18.90;97.30;;;;;;7404806;19;19957;-70
2023/06/14 00:25:23;;;;;;;8.00;4.43;;;18.90;97.70;;;;;;7400800;19;19927;-71
2023/06/14 00:27:49;;;;;;;6.72;3.00;;;18.90;97.80;;;;;;7405148;19;19935;-70
2023/06/14 00:30:15;;;;;;;6.00;2.35;;;18.90;96.00;;;;;;7404382;19;19914;-71
2023/06/14 00:32:42;;;;;;;5.57;2.40;;;18.90;95.30;;;;;;7404768;19;19923;-70
2023/06/14 00:35:09;;;;;;;7.40;2.40;;;18.90;95.00;;;;;;7402522;19;19929;-71
2023/06/14 00:37:35;;;;;;;4.72;2.40;;;18.90;94.50;;;;;;7404658;19;20332;-71
2023/06/14 00:40:01;;;;;;;5.97;2.08;;;18.90;94.30;;;;;;7401704;19;19918;-70
2023/06/14 00:42:28;;;;;;;5.57;2.47;;;18.90;94.00;;;;;;7403121;19;19914;-72
2023/06/14 00:44:54;;;;;;;;;;;18.90;93.30;;;;;;7405351;19;20002;-70
2023/06/14 00:47:20;;;;;;;4.63;2.10;;;19.00;92.90;;;;;;7402783;19;19922;-72
2023/06/14 00:49:47;;;;;;;4.80;1.95;;;19.00;92.50;;;;;;7404540;19;20254;-72
2023/06/14 00:52:15;;;;;;;5.07;1.80;;;19.00;92.20;;;;;;7401868;19;20319;-72
2023/06/14 00:54:42;;;;;;;6.85;1.88;;;19.00;92.30;;;;;;7398022;19;19926;-71
2023/06/14 00:57:08;;;;;;;5.88;2.30;;;19.10;92.30;;;;;;7403498;19;19906;-72
2023/06/14 00:59:45;;;;;;;4.25;1.90;;;19.00;92.30;;;;;;7401984;19;19922;-71
2023/06/14 01:02:14;;;;;;;4.90;1.83;;;19.00;92.30;;;;;;7400620;19;19918;-71
2023/06/14 01:04:44;;;;;;;4.20;1.75;;;18.90;92.50;;;;;;7402189;19;19918;-71
2023/06/14 01:07:47;;;;;;;5.03;2.13;;;18.90;93.10;;;;;;7399227;19;19970;-72
2023/06/14 01:10:32;;;;;;;6.55;2.25;;;18.80;93.40;;;;;;7399916;19;19915;-71
2023/06/14 01:13:18;;;;;;;7.28;2.20;;;18.70;93.60;;;;;;7399241;19;20498;-72
2023/06/14 01:15:45;;;;;;;6.30;2.42;;;18.70;93.90;;;;;;7397782;19;19910;-71
2023/06/14 01:18:17;;;;;;;4.28;2.00;;;18.70;93.80;;;;;;7398849;19;19918;-71
2023/06/14 01:20:49;;;;;;;6.97;2.13;;;18.80;93.70;;;;;;7401354;19;19923;-72
2023/06/14 01:23:16;;;;;;;5.35;1.83;;;18.80;93.20;;;;;;7399198;19;19918;-71
2023/06/14 01:25:44;;;;;;;4.85;1.90;;;18.90;92.50;;;;;;7399676;19;20470;-72
2023/06/14 01:28:11;;;;;;;4.30;1.80;;;18.90;92.00;;;;;;7398464;19;19915;-72
2023/06/14 01:30:47;;;;;;;3.72;1.70;;;19.00;91.60;;;;;;7402998;19;19926;-72
2023/06/14 01:33:19;;;;;;;4.65;1.90;;;18.90;91.20;;;;;;7398810;19;19923;-72
2023/06/14 01:35:48;;;;;;;5.55;1.60;;;18.90;91.40;;;;;;7397005;19;19917;-72
2023/06/14 01:38:14;;;;;;;4.40;1.70;;;18.90;91.40;;;;;;7401654;19;19974;-71
2023/06/14 01:40:41;;;;;;;;;;;19.00;91.40;;;;;;7402953;19;19949;-71
2023/06/14 01:43:07;;;;;;;6.25;1.65;;;18.90;91.40;;;;;;7399384;19;19947;-72
2023/06/14 01:45:34;;;;;;;4.10;1.80;;;19.00;91.40;;;;;;7401765;19;19915;-71
2023/06/14 01:48:00;;;;;;;5.72;1.60;;;18.90;91.40;;;;;;7400725;19;20260;-72
2023/06/14 01:50:31;;;;;;;6.55;1.92;;;19.00;91.60;;;;;;7401188;19;19914;-70
2023/06/14 01:52:57;;;;;;;4.05;1.75;;;18.90;91.80;;;;;;7401386;19;19922;-71
2023/06/14 01:55:24;;;;;;;3.65;1.80;;;18.90;91.70;;;;;;7399301;19;19952;-71
2023/06/14 01:57:51;;;;;;;5.90;1.92;;;18.80;91.60;;;;;;7402329;19;19915;-71
2023/06/14 02:00:18;;;;;;;4.50;1.75;;;18.80;91.80;;;;;;7401402;19;20002;-71
2023/06/14 02:02:45;;;;;;;4.35;1.95;;;18.70;91.80;;;;;;7402794;19;19943;-71
2023/06/14 02:05:11;;;;;;;4.95;2.08;;;18.80;91.80;;;;;;7398926;19;19919;-70
2023/06/14 02:07:37;;;;;;;3.72;1.55;;;18.80;91.80;;;;;;7400965;19;19933;-70
2023/06/14 02:10:07;;;;;;;4.22;1.60;;;18.90;91.30;;;;;;7400780;19;20256;-71
2023/06/14 02:12:32;;;;;;;3.63;1.65;;;18.90;90.90;;;;;;7402814;19;19922;-70
2023/06/14 02:14:58;;;;;;;4.63;1.60;;;18.90;90.90;;;;;;7401607;19;19923;-72
2023/06/14 02:17:24;;;;;;;5.57;1.90;;;18.90;90.80;;;;;;7400932;19;19918;-71
2023/06/14 02:19:50;;;;;;;4.53;1.63;;;19.00;90.70;;;;;;7400072;19;20207;-72
2023/06/14 02:22:16;;;;;;;3.70;1.52;;;19.00;90.60;;;;;;7398235;19;19931;-71
2023/06/14 02:24:42;;;;;;;5.22;1.58;;;19.00;90.50;;;;;;7399158;19;19914;-71
2023/06/14 02:27:10;;;;;;;4.60;1.75;;;19.00;90.50;;;;;;7396816;19;19911;-71
2023/06/14 02:29:36;;;;;;;5.43;1.52;;;19.10;90.50;;;;;;7399343;19;19940;-71
2023/06/14 02:32:02;;;;;;;4.55;1.55;;;19.00;90.30;;;;;;7399592;19;20373;-71
2023/06/14 02:34:28;;;;;;;4.45;1.55;;;19.10;90.00;;;;;;7398902;19;20312;-71
2023/06/14 02:36:55;;;;;;;3.13;1.23;;;19.10;89.60;;;;;;7398377;19;19918;-71
2023/06/14 02:39:23;;;;;;;;;;;19.10;89.30;;;;;;7401809;19;22747;-70
2023/06/14 02:41:50;;;;;;;3.10;1.30;;;19.10;88.70;;;;;;7399575;19;19922;-71
2023/06/14 02:44:19;;;;;;;4.13;1.33;;;19.20;88.00;;;;;;7398012;19;20362;-71
2023/06/14 02:46:45;;;;;;;3.67;1.38;;;19.10;87.80;;;;;;7401111;19;19918;-71
2023/06/14 02:49:11;;;;;;;6.38;2.58;;;19.10;88.20;;;;;;7397534;19;19925;-71
2023/06/14 02:51:37;;;;;;;4.15;1.60;;;19.00;89.00;;;;;;7400591;19;19913;-72
2023/06/14 02:54:03;;;;;;;3.50;1.40;;;19.00;89.50;;;;;;7398376;19;19982;-72
2023/06/14 02:56:29;;;;;;;4.00;1.60;;;19.00;89.70;;;;;;7399298;19;19915;-72
2023/06/14 02:58:55;;;;;;;3.50;1.40;;;18.90;89.90;;;;;;7396685;19;19923;-71
2023/06/14 03:01:21;;;;;;;4.18;1.80;;;18.90;90.00;;;;;;7399506;19;19923;-71
2023/06/14 03:03:47;;;;;;;4.30;1.55;;;18.80;90.10;;;;;;7399872;19;19922;-71
2023/06/14 03:06:13;;;;;;;5.20;1.55;;;18.80;89.90;;;;;;7397669;19;20004;-71
2023/06/14 03:08:41;;;;;;;3.15;1.42;;;18.90;89.20;;;;;;7399553;19;19943;-72
2023/06/14 03:11:07;;;;;;;3.30;1.50;;;18.90;88.70;;;;;;7396894;19;19918;-71
2023/06/14 03:13:34;;;;;;;3.75;1.30;;;18.90;88.70;;;;;;7399550;19;19922;-71
2023/06/14 03:16:03;;;;;;;4.13;1.40;;;18.90;88.90;;;;;;7396636;19;20470;-71
2023/06/14 03:18:30;;;;;;;3.40;1.55;;;18.80;89.00;;;;;;7398382;19;19938;-72
2023/06/14 03:20:57;;;;;;;4.20;1.55;;;18.90;89.10;;;;;;7398812;19;19910;-71
2023/06/14 03:23:25;;;;;;;5.10;1.40;;;18.90;89.10;;;;;;7365862;19;20395;-71
2023/06/14 03:25:51;;;;;;;3.33;1.30;;;18.80;89.00;;;;;;7396060;19;19919;-72
2023/06/14 03:28:17;;;;;;;3.45;1.40;;;18.80;88.90;;;;;;7399087;19;19946;-71
2023/06/14 03:30:43;;;;;;;2.60;1.15;;;18.90;89.30;;;;;;7397119;19;19941;-72
2023/06/14 03:33:09;;;;;;;3.92;1.40;;;18.90;89.00;;;;;;7398812;19;20339;-72
2023/06/14 03:35:35;;;;;;;3.50;1.60;;;18.90;89.00;;;;;;7396027;19;20269;-71
2023/06/14 03:38:02;;;;;;;4.93;1.60;;;18.90;89.00;;;;;;7396651;19;19926;-71
2023/06/14 03:40:28;;;;;;;4.78;1.63;;;18.90;89.00;;;;;;7396294;19;19922;-71
2023/06/14 03:42:54;;;;;;;3.38;1.38;;;18.90;89.20;;;;;;7400423;19;19954;-71
2023/06/14 03:45:21;;;;;;;3.78;1.55;;;18.90;88.80;;;;;;7395482;19;20236;-71
2023/06/14 03:47:46;;;;;;;3.80;1.63;;;19.00;87.50;;;;;;7397844;19;19922;-72
2023/06/14 03:50:12;;;;;;;3.35;1.13;;;19.00;87.00;;;;;;7396071;19;19935;-71
2023/06/14 03:52:38;;;;;;;2.83;1.13;;;19.10;86.20;;;;;;7399277;19;19911;-72
2023/06/14 03:55:04;;;;;;;3.28;1.20;;;19.00;86.30;;;;;;7396327;19;19926;-71
2023/06/14 03:57:30;;;;;;;5.40;1.42;;;19.00;86.20;;;;;;7399601;19;19918;-72
2023/06/14 03:59:57;;;;;;;4.30;1.20;;;19.10;86.00;;;;;;7397197;19;19992;-71
2023/06/14 04:02:23;;;;;;;4.63;1.50;;;19.00;85.60;;;;;;7395157;19;19930;-71
2023/06/14 04:04:49;;;;;;;3.83;1.48;;;19.10;85.60;;;;;;7394951;19;20072;-71
2023/06/14 04:07:19;;;;;;;2.85;1.02;;;19.10;86.20;;;;;;7397170;19;19911;-71
2023/06/14 04:09:45;;;;;;;4.32;1.70;;;19.10;86.00;;;;;;7394828;19;19923;-71
2023/06/14 04:12:14;;;;;;;3.75;1.30;;;19.20;86.10;;;;;;7393249;19;19923;-72
2023/06/14 04:14:40;;;;;;;3.10;1.20;;;19.20;86.30;;;;;;7395036;19;19927;-72
2023/06/14 04:17:06;;;;;;;3.85;1.27;;;19.30;86.30;;;;;;7393261;19;19918;-72
2023/06/14 04:19:32;;;;;;;4.50;1.40;;;19.30;86.00;;;;;;7400475;19;19998;-71
2023/06/14 04:22:01;;;;;;;3.78;1.52;;;19.40;85.80;;;;;;7395922;19;19948;-71
2023/06/14 04:24:28;;;;;;;4.13;1.60;;;19.40;85.00;;;;;;7396433;19;20335;-71
2023/06/14 04:26:54;;;;;;;3.80;1.40;;;19.50;84.60;;;;;;7395071;19;19920;-70
2023/06/14 04:29:20;;;;;;;4.70;1.60;;;19.60;84.40;;;;;;7365791;19;19931;-71
2023/06/14 04:31:46;;;;;;;4.65;1.55;;;19.60;84.20;;;;;;7394760;19;19918;-71
2023/06/14 04:34:16;;;;;;;3.60;1.45;;;19.70;84.00;;;;;;7396359;19;19926;-70
2023/06/14 04:36:48;;;;;;;4.28;1.60;;;19.70;83.80;;;;;;7395153;19;19922;-71
2023/06/14 04:39:17;;;;;;;3.60;1.58;;;19.70;83.80;;;;;;7394688;19;19915;-71
2023/06/14 04:41:44;;;;;;;3.85;1.42;;;19.90;83.50;;;;;;7391882;19;19911;-71
2023/06/14 04:44:10;;;;;;;5.05;1.60;;;19.90;83.50;;;;;;7395598;19;19915;-72
2023/06/14 04:46:58;;;;;;;3.42;1.02;;;20.00;83.30;;;;;;7394691;19;20339;-71
2023/06/14 04:49:23;;;;;;;2.83;1.00;;;20.10;82.90;;;;;;7398357;19;20331;-71
2023/06/14 04:51:57;;;;;;;2.70;0.98;;;20.10;82.60;;;;;;7401214;19;19914;-71
2023/06/14 04:54:24;;;;;;;3.08;1.30;;;20.20;82.20;;;;;;7401766;19;20015;-72
2023/06/14 04:56:50;;;;;;;3.60;1.40;;;20.30;81.60;;;;;;7401494;19;19974;-72
2023/06/14 04:59:17;;;;;;;4.75;1.38;;;20.40;80.80;;;;;;7401686;19;19922;-71
2023/06/14 05:01:49;;;;;;;3.78;1.50;;;20.40;80.40;;;;;;7402281;19;20276;-72
2023/06/14 05:04:18;;;;;;;3.83;1.17;;;20.50;80.50;;;;;;7401125;19;19943;-71
2023/06/14 05:06:45;;;;;;;4.40;1.98;;;20.50;80.20;;;;;;7402861;19;20347;-71
2023/06/14 05:09:12;;;;;;;3.60;1.52;;;20.60;80.10;;;;;;7401354;19;19949;-71
2023/06/14 05:11:38;;;;;;;4.32;1.50;;;20.60;80.10;;;;;;7401585;19;19989;-73
2023/06/14 05:14:03;;;;;;;3.85;1.45;;;20.70;80.00;;;;;;7396473;19;20320;-71
2023/06/14 05:16:29;;;;;;;2.92;1.23;;;20.70;79.50;;;;;;7401243;19;19978;-71
2023/06/14 05:18:55;;;;;;;4.00;1.70;;;20.60;79.90;;;;;;7401736;19;19923;-71
2023/06/14 05:21:21;;;;;;;5.60;1.60;;;20.50;80.40;;;;;;7402750;19;19942;-71
2023/06/14 05:23:47;;;;;;;5.05;1.80;;;20.50;80.90;;;;;;7401375;19;19922;-71
2023/06/14 05:26:13;;;;;;;4.95;1.80;;;20.50;81.10;;;;;;7404341;19;19926;-71
2023/06/14 05:28:39;;;;;;;7.45;2.55;;;20.50;81.30;;;;;;7401973;19;20255;-72
2023/06/14 05:31:05;;;;;;;4.00;1.73;;;20.50;81.50;;;;;;7403674;19;19953;-73
2023/06/14 05:33:30;;;;;;;5.30;1.80;;;20.50;82.00;;;;;;7402581;19;19910;-71
2023/06/14 05:35:56;;;;;;;4.07;1.92;;;20.40;82.00;;;;;;7403267;19;19953;-71
2023/06/14 05:38:22;;;;;;;5.00;1.90;;;20.50;82.20;;;;;;7399297;19;19943;-71
2023/06/14 05:40:48;;;;;;;12.20;6.70;;;20.50;82.40;;;;;;7403697;19;19952;-71
2023/06/14 05:43:14;;;;;;;5.80;2.47;;;20.60;82.40;;;;;;7400278;19;19943;-72
2023/06/14 05:45:39;;;;;;;3.75;1.45;;;20.70;82.00;;;;;;7405064;19;19934;-72
2023/06/14 05:48:05;;;;;;;4.88;1.85;;;20.90;81.40;;;;;;7398806;19;19915;-70
2023/06/14 05:50:31;;;;;;;5.40;1.73;;;21.00;80.90;;;;;;7401551;19;20209;-70
2023/06/14 05:52:57;;;;;;;5.28;2.20;;;21.10;80.50;;;;;;7401646;19;19925;-71
2023/06/14 05:55:23;;;;;;;4.95;1.98;;;21.10;80.10;;;;;;7399412;19;19982;-71
2023/06/14 05:57:49;;;;;;;3.78;1.50;;;21.20;80.00;;;;;;7400241;19;20041;-71
2023/06/14 06:00:15;;;;;;;3.38;1.52;;;21.20;79.60;;;;;;7400402;19;19922;-72
2023/06/14 06:02:45;;;;;;;3.67;1.73;;;21.20;79.60;;;;;;7400746;19;19927;-71
2023/06/14 06:05:12;;;;;;;5.15;1.50;;;21.20;79.40;;;;;;7401920;19;19922;-71
2023/06/14 06:07:45;;;;;;;5.07;1.85;;;21.30;79.00;;;;;;7403127;19;19922;-71
2023/06/14 06:10:11;;;;;;;;;;;21.40;78.60;;;;;;7402591;19;20423;-72
2023/06/14 06:12:37;;;;;;;4.60;1.50;;;21.40;78.40;;;;;;7400009;19;19914;-71
2023/06/14 06:15:03;;;;;;;3.38;1.58;;;21.30;78.00;;;;;;7397107;19;20276;-71
2023/06/14 06:17:29;;;;;;;3.85;1.50;;;21.40;78.10;;;;;;7401001;19;19918;-71
2023/06/14 06:19:55;;;;;;;3.38;1.88;;;21.40;78.10;;;;;;7379367;19;20277;-71
2023/06/14 06:22:21;;;;;;;3.83;1.88;;;21.40;78.30;;;;;;7400664;19;19919;-71
2023/06/14 06:24:47;;;;;;;3.53;1.70;;;21.40;78.60;;;;;;7399735;19;20335;-71
2023/06/14 06:27:13;;;;;;;4.10;1.63;;;21.50;78.50;;;;;;7401345;19;20234;-71
2023/06/14 06:29:39;;;;;;;3.50;1.45;;;21.60;77.50;;;;;;7400672;19;20012;-71
2023/06/14 06:32:05;;;;;;;5.13;2.05;;;21.70;77.30;;;;;;7400786;19;20251;-72
2023/06/14 06:34:31;;;;;;;4.18;1.90;;;21.90;76.80;;;;;;7401740;19;19930;-71
2023/06/14 06:36:57;;;;;;;3.88;2.30;;;21.90;76.00;;;;;;7403138;19;20264;-71
2023/06/14 06:39:22;;;;;;;4.30;1.70;;;21.80;76.00;;;;;;7398417;19;19929;-71
2023/06/14 06:41:48;;;;;;;4.47;1.88;;;21.80;76.40;;;;;;7402311;19;19921;-70
2023/06/14 06:44:14;;;;;;;4.75;2.03;;;21.70;77.00;;;;;;7400292;19;19936;-71
2023/06/14 06:46:40;;;;;;;6.38;2.10;;;21.60;77.30;;;;;;7399802;19;19914;-71
2023/06/14 06:49:11;;;;;;;4.40;1.80;;;21.50;77.30;;;;;;7378261;19;19935;-72
2023/06/14 06:51:41;;;;;;;5.32;2.03;;;21.50;77.30;;;;;;7403154;19;19922;-71
2023/06/14 06:54:08;;;;;;;4.20;1.52;;;21.50;76.30;;;;;;7397161;19;19911;-71
2023/06/14 06:56:34;;;;;;;4.28;1.33;;;21.50;75.90;;;;;;7401597;19;19911;-71
2023/06/14 06:59:00;;;;;;;;;;;21.50;75.80;;;;;;7400291;19;20541;-71
2023/06/14 07:01:26;;;;;;;4.70;1.65;;;21.60;75.50;;;;;;7401709;19;19918;-71
2023/06/14 07:03:52;;;;;;;3.13;1.58;;;21.80;75.20;;;;;;7400346;19;19970;-72
2023/06/14 07:06:18;;;;;;;5.10;1.80;;;21.90;74.80;;;;;;7401084;19;19922;-71
2023/06/14 07:08:44;;;;;;;;;;;22.10;74.50;;;;;;7400718;19;19915;-72
2023/06/14 07:11:10;;;;;;;4.80;2.03;;;22.30;74.10;;;;;;7398519;19;19929;-71
2023/06/14 07:13:36;;;;;;;5.10;1.65;;;22.30;74.00;;;;;;7401167;19;19911;-72
2023/06/14 07:16:04;;;;;;;6.22;2.00;;;22.60;74.10;;;;;;7347731;19;19918;-73
2023/06/14 07:18:30;;;;;;;6.15;1.70;;;22.60;74.00;;;;;;7397724;19;19910;-73
2023/06/14 07:20:57;;;;;;;6.70;2.25;;;22.30;74.80;;;;;;7398353;19;19907;-72
2023/06/14 07:23:22;;;;;;;;;;;22.30;75.30;;;;;;7402659;19;19935;-72
2023/06/14 07:25:48;;;;;;;4.13;1.75;;;22.30;74.80;;;;;;7399449;19;19947;-74
2023/06/14 07:28:16;;;;;;;3.92;1.35;;;22.20;74.50;;;;;;7399285;19;20258;-73
2023/06/14 07:30:41;;;;;;;5.38;1.88;;;22.40;73.90;;;;;;7400145;19;19925;-72
2023/06/14 07:33:08;;;;;;;4.47;1.73;;;22.60;73.10;;;;;;7357381;19;19982;-72
2023/06/14 07:35:33;;;;;;;;;;;22.70;72.80;;;;;;7345784;19;19910;-72
2023/06/14 07:37:59;;;;;;;4.55;2.08;;;22.80;72.40;;;;;;7343152;19;19935;-72
2023/06/14 07:40:25;;;;;;;4.00;1.50;;;23.00;71.20;;;;;;7316351;19;19915;-71
2023/06/14 07:42:51;;;;;;;5.93;1.90;;;23.30;70.90;;;;;;7370369;19;19922;-71
2023/06/14 07:45:17;;;;;;;3.65;1.85;;;23.30;70.50;;;;;;7395627;19;19970;-72
2023/06/14 07:47:42;;;;;;;4.75;1.75;;;23.20;70.40;;;;;;7362302;19;19935;-71
2023/06/14 07:50:09;;;;;;;4.15;1.70;;;23.30;70.20;;;;;;7353573;19;19939;-71
2023/06/14 07:52:35;;;;;;;6.50;1.77;;;23.10;69.80;;;;;;7338836;19;19918;-72
2023/06/14 07:55:00;;;;;;;4.32;1.80;;;23.10;69.30;;;;;;7356453;19;20244;-72
2023/06/14 07:57:26;;;;;;;5.50;1.58;;;23.30;69.10;;;;;;7362046;19;19922;-72
2023/06/14 07:59:52;;;;;;;4.78;1.80;;;23.20;69.30;;;;;;7330944;19;19914;-72
2023/06/14 08:02:18;;;;;;;4.10;2.00;;;23.20;70.10;;;;;;7344232;19;19922;-71
2023/06/14 08:04:44;;;;;;;5.30;2.03;;;23.20;70.60;;;;;;7362411;19;19953;-73
2023/06/14 08:07:10;;;;;;;3.47;1.45;;;23.20;71.10;;;;;;7345208;19;20338;-72
2023/06/14 08:09:39;;;;;;;4.18;1.80;;;23.30;70.90;;;;;;7347223;19;19935;-71
2023/06/14 08:12:10;;;;;;;4.95;2.03;;;23.40;70.30;;;;;;7351235;19;21156;-71
2023/06/14 08:14:36;;;;;;;4.78;2.08;;;23.50;69.40;;;;;;7344925;19;19921;-71
2023/06/14 08:17:01;;;;;;;4.03;1.73;;;23.60;69.50;;;;;;7330652;19;19929;-72
2023/06/14 08:19:28;;;;;;;4.38;1.45;;;23.70;68.90;;;;;;7365203;19;19923;-73
2023/06/14 08:21:55;;;;;;;3.80;1.80;;;23.40;68.80;;;;;;7347509;19;19915;-72
2023/06/14 08:24:26;;;;;;;4.10;1.88;;;23.10;70.10;;;;;;7378556;19;19936;-71
2023/06/14 08:26:56;;;;;;;4.40;1.98;;;23.20;70.20;;;;;;7375016;19;19925;-72
2023/06/14 08:29:22;;;;;;;4.75;1.95;;;23.40;69.70;;;;;;7401927;19;20577;-73
2023/06/14 08:31:48;;;;;;;4.30;1.67;;;23.60;68.30;;;;;;7408974;19;20400;-72
2023/06/14 08:34:14;;;;;;;4.65;2.58;;;23.70;67.90;;;;;;7404948;19;20339;-72
2023/06/14 08:36:40;;;;;;;4.22;1.80;;;23.80;67.40;;;;;;7405458;19;19929;-72
2023/06/14 08:39:08;;;;;;;6.28;1.40;;;23.90;66.30;;;;;;7406122;19;19923;-73
2023/06/14 08:41:35;;;;;;;3.42;1.60;;;24.20;65.40;;;;;;7407257;19;19910;-72
2023/06/14 08:44:01;;;;;;;3.65;1.80;;;25.20;62.70;;;;;;7405883;19;19914;-71
2023/06/14 08:46:27;;;;;;;5.32;2.13;;;26.60;58.60;;;;;;7403157;19;19921;-72
2023/06/14 08:48:56;;;;;;;;;;;27.60;55.90;;;;;;7407878;19;19923;-72
2023/06/14 08:51:26;;;;;;;4.07;2.92;;;28.90;53.70;;;;;;7405585;19;19922;-71
2023/06/14 08:53:58;;;;;;;4.45;2.70;;;28.70;52.00;;;;;;7403112;19;19939;-72
2023/06/14 08:56:48;;;;;;;3.75;2.70;;;28.50;52.10;;;;;;7394434;19;19918;-73
2023/06/14 08:59:15;;;;;;;4.15;3.33;;;29.00;51.00;;;;;;7396202;19;20658;-72
2023/06/14 09:01:41;;;;;;;4.70;2.90;;;29.50;51.10;;;;;;7351343;19;19923;-72
2023/06/14 09:04:07;;;;;;;8.70;5.25;;;29.30;50.30;;;;;;7342922;19;20019;-72
2023/06/14 09:06:32;;;;;;;;;;;28.10;51.00;;;;;;7360764;19;19918;-72
2023/06/14 09:08:58;;;;;;;5.38;3.78;;;28.00;53.00;;;;;;7386357;19;20340;-73
2023/06/14 09:11:25;;;;;;;;;;;28.90;51.80;;;;;;7363584;19;19948;-71
2023/06/14 09:13:52;;;;;;;4.88;3.10;;;29.40;51.30;;;;;;7352781;19;19947;-74
2023/06/14 09:16:18;;;;;;;4.47;2.60;;;28.10;51.80;;;;;;7356142;19;21619;-72
2023/06/14 09:18:44;;;;;;;;;;;27.10;53.70;;;;;;7357858;19;19963;-73
2023/06/14 09:21:14;;;;;;;6.80;3.08;;;26.90;54.60;;;;;;7351914;19;19915;-71
2023/06/14 09:23:45;;;;;;;4.95;3.47;;;27.50;54.60;;;;;;7363700;19;19925;-72
2023/06/14 09:26:16;;;;;;;4.40;2.47;;;28.50;52.60;;;;;;7348847;19;21139;-72
2023/06/14 09:28:47;;;;;;;6.93;3.60;;;27.90;53.30;;;;;;7348063;19;19915;-73
2023/06/14 09:31:14;;;;;;;5.07;3.83;;;27.10;55.00;;;;;;7359458;19;19918;-72
2023/06/14 09:33:50;;;;;;;6.85;3.05;;;27.10;55.70;;;;;;7345271;19;19926;-72
2023/06/14 09:36:22;;;;;;;5.60;2.65;;;27.20;55.20;;;;;;7355961;19;19922;-72
2023/06/14 09:38:57;;;;;;;4.22;2.75;;;27.50;53.40;;;;;;7400608;19;19925;-71
2023/06/14 09:41:40;;;;;;;5.50;3.17;;;27.50;52.50;;;;;;7376748;19;21108;-72
2023/06/14 09:44:10;;;;;;;5.72;3.05;;;27.40;52.90;;;;;;7355901;19;19921;-73
2023/06/14 09:46:37;;;;;;;4.93;2.78;;;28.50;52.00;;;;;;7332395;19;19921;-73
2023/06/14 09:49:04;;;;;;;5.78;2.65;;;29.70;49.90;;;;;;7398076;19;20252;-73
2023/06/14 09:51:31;;;;;;;6.30;3.65;;;29.20;49.70;;;;;;7402286;19;20010;-74
2023/06/14 09:54:04;;;;;;;4.25;3.38;;;30.20;49.80;;;;;;7403824;19;20513;-73
2023/06/14 09:56:33;;;;;;;6.00;2.40;;;29.80;48.70;;;;;;7402527;19;20014;-74
2023/06/14 09:59:01;;;;;;;3.60;2.45;;;28.40;48.90;;;;;;7405416;19;20628;-74
2023/06/14 10:01:30;;;;;;;8.63;6.18;;;28.00;50.50;;;;;;7404840;19;20031;-74
2023/06/14 10:04:06;;;;;;;9.43;5.80;;;28.50;50.00;;;;;;7368047;19;19918;-74
2023/06/14 10:06:36;;;;;;;4.18;2.90;;;29.50;48.90;;;;;;7362716;19;19918;-73
2023/06/14 10:09:05;;;;;;;3.80;3.13;;;30.80;47.00;;;;;;7342805;19;19935;-74
2023/06/14 10:11:31;;;;;;;4.30;3.78;;;31.70;44.50;;;;;;7365916;19;20024;-73
2023/06/14 10:13:57;;;;;;;;;;;31.60;43.20;;;;;;7386342;19;19907;-74
2023/06/14 10:16:37;;;;;;;4.07;3.20;;;32.60;43.30;;;;;;7393229;19;19945;-73
2023/06/14 10:19:03;;;;;;;4.90;4.22;;;33.60;40.90;;;;;;7356374;19;19915;-75
2023/06/14 10:21:50;;;;;;;5.50;4.82;;;33.90;40.10;;;;;;7352702;19;19914;-74
2023/06/14 10:24:19;;;;;;;5.18;3.67;;;34.10;40.10;;;;;;7339359;19;19933;-73
2023/06/14 10:26:53;;;;;;;4.50;4.03;;;34.60;39.80;;;;;;7341885;19;19918;-73
2023/06/14 10:29:19;;;;;;;4.57;3.72;;;34.70;38.40;;;;;;7340063;19;19919;-73
2023/06/14 10:31:48;;;;;;;5.13;3.40;;;33.80;38.50;;;;;;7369805;19;20025;-74
2023/06/14 10:34:25;;;;;;;5.95;4.10;;;33.50;39.40;;;;;;7351078;19;19915;-76
2023/06/14 10:37:04;;;;;;;5.72;3.85;;;33.70;39.40;;;;;;7342901;19;20961;-73
2023/06/14 10:39:32;;;;;;;6.88;4.13;;;32.50;40.70;;;;;;7347725;19;19928;-75
2023/06/14 10:42:01;;;;;;;4.43;3.25;;;32.40;40.40;;;;;;7356131;19;19923;-73
2023/06/14 10:44:30;;;;;;;4.68;2.35;;;31.20;42.00;;;;;;7340112;19;19918;-73
2023/06/14 10:46:59;;;;;;;4.85;3.03;;;30.60;43.40;;;;;;7375126;19;19934;-74
2023/06/14 10:49:45;;;;;;;6.47;3.45;;;31.20;42.90;;;;;;7355132;19;19919;-74
2023/06/14 10:52:21;;;;;;;5.03;3.03;;;31.40;42.70;;;;;;7342411;19;19919;-73
2023/06/14 10:55:12;;;;;;;4.75;2.60;;;30.10;44.30;;;;;;7340336;19;20275;-73
2023/06/14 10:57:46;;;;;;;7.30;3.70;;;30.80;44.70;;;;;;7348966;19;19915;-73
2023/06/14 11:00:16;;;;;;;11.98;4.45;;;30.90;45.80;;;;;;7370814;19;19934;-73
2023/06/14 11:03:16;;;;;;;6.22;3.45;;;30.40;47.50;;;;;;7375044;19;19911;-73
2023/06/14 11:05:49;;;;;;;8.13;3.63;;;29.70;48.40;;;;;;7342684;19;20022;-72
2023/06/14 11:08:40;;;;;;;8.80;3.50;;;29.70;49.00;;;;;;7345234;19;19949;-72
2023/06/14 11:11:08;;;;;;;7.95;3.13;;;30.00;48.20;;;;;;7344054;19;20503;-74
2023/06/14 11:13:38;;;;;;;12.00;3.42;;;29.30;48.60;;;;;;7376786;19;20335;-73
2023/06/14 11:16:11;;;;;;;5.43;3.72;;;28.20;49.50;;;;;;7395747;19;20343;-74
2023/06/14 11:18:37;;;;;;;7.57;4.18;;;28.30;50.40;;;;;;7398311;19;19911;-73
2023/06/14 11:21:03;;;;;;;6.93;3.30;;;28.20;50.30;;;;;;7394779;19;19911;-74
2023/06/14 11:23:29;;;;;;;5.60;3.42;;;28.00;50.00;;;;;;7401561;19;19939;-72
2023/06/14 11:25:55;;;;;;;7.53;2.83;;;27.80;51.00;;;;;;7400052;19;20332;-73
2023/06/14 11:28:21;;;;;;;6.93;3.00;;;28.30;50.70;;;;;;7400693;19;19923;-73
2023/06/14 11:30:59;;;;;;;5.82;2.70;;;28.10;50.10;;;;;;7397388;19;19935;-73
2023/06/14 11:33:25;;;;;;;;;;;28.20;49.90;;;;;;7401824;19;19923;-73
2023/06/14 11:35:52;;;;;;;5.22;2.67;;;28.00;50.50;;;;;;7397070;19;19943;-73
2023/06/14 11:38:18;;;;;;;9.50;3.47;;;27.70;50.80;;;;;;7398320;19;19910;-73
2023/06/14 11:40:43;;;;;;;5.05;3.35;;;27.50;51.60;;;;;;7398757;19;20476;-73
2023/06/14 11:43:09;;;;;;;5.20;2.70;;;27.70;51.50;;;;;;7400179;19;19918;-74
2023/06/14 11:45:35;;;;;;;4.60;2.45;;;28.30;50.80;;;;;;7398114;19;19918;-72
2023/06/14 11:48:01;;;;;;;6.22;3.30;;;27.90;50.70;;;;;;7387221;19;19918;-72
2023/06/14 11:50:28;;;;;;;8.60;3.38;;;27.40;51.40;;;;;;7390586;19;19930;-72
2023/06/14 11:52:55;;;;;;;5.82;3.40;;;27.30;52.50;;;;;;7334753;19;19937;-72
2023/06/14 11:55:22;;;;;;;5.55;2.75;;;28.20;51.20;;;;;;7338514;19;20026;-71
2023/06/14 11:57:48;;;;;;;4.40;3.47;;;27.90;50.10;;;;;;7356650;19;19907;-72
2023/06/14 12:00:15;;;;;;;7.10;3.53;;;28.20;50.60;;;;;;7377478;19;19929;-72
2023/06/14 12:02:41;;;;;;;6.53;3.97;;;28.20;50.40;;;;;;7405358;19;19923;-72
2023/06/14 12:05:09;;;;;;;8.07;3.22;;;28.20;51.10;;;;;;7401965;19;19932;-73
2023/06/14 12:07:41;;;;;;;5.60;3.97;;;29.20;50.00;;;;;;7404637;19;19922;-73
2023/06/14 12:10:10;;;;;;;7.00;3.55;;;29.50;48.60;;;;;;7403700;19;19930;-72
2023/06/14 12:12:40;;;;;;;5.40;3.17;;;28.50;49.80;;;;;;7406231;19;19919;-73
2023/06/14 12:15:11;;;;;;;5.22;3.05;;;29.20;49.70;;;;;;7401432;19;19921;-73
2023/06/14 12:17:42;;;;;;;8.02;3.83;;;28.90;48.80;;;;;;7405437;19;20413;-73
2023/06/14 12:20:21;;;;;;;5.10;3.45;;;28.70;49.90;;;;;;7403059;19;19915;-72
2023/06/14 12:23:04;;;;;;;5.35;3.05;;;29.80;48.40;;;;;;7404570;19;19922;-72
2023/06/14 12:25:35;;;;;;;5.90;3.72;;;30.40;47.40;;;;;;7404546;19;19918;-72
2023/06/14 12:28:19;;;;;;;5.10;3.53;;;30.40;46.50;;;;;;7402203;19;19922;-73
2023/06/14 12:30:45;;;;;;;6.88;3.05;;;28.80;49.00;;;;;;7404084;19;20255;-73
2023/06/14 12:33:11;;;;;;;4.72;2.97;;;29.70;48.50;;;;;;7398929;19;19939;-73
2023/06/14 12:35:36;;;;;;;;;;;29.60;47.00;;;;;;7406669;19;19911;-73
2023/06/14 12:38:03;;;;;;;5.25;3.25;;;29.80;47.60;;;;;;7400657;19;19911;-73
2023/06/14 12:40:29;;;;;;;4.72;3.45;;;29.40;48.20;;;;;;7401391;19;19926;-73
2023/06/14 12:42:55;;;;;;;8.20;3.58;;;28.50;49.30;;;;;;7399945;19;19934;-72
2023/06/14 12:45:20;;;;;;;5.65;3.47;;;29.70;49.10;;;;;;7402848;19;20342;-73
2023/06/14 12:47:46;;;;;;;6.43;3.50;;;29.60;48.90;;;;;;7404468;19;20333;-73
2023/06/14 12:50:12;;;;;;;6.80;3.60;;;28.40;50.50;;;;;;7401418;19;19982;-73
2023/06/14 12:52:38;;;;;;;5.78;3.72;;;29.00;50.10;;;;;;7404137;19;20316;-72
2023/06/14 12:55:04;;;;;;;8.13;3.20;;;27.80;51.40;;;;;;7401888;19;19935;-72